createdAt,value
2019-03-15T00:02:51.691Z,12.37
2019-03-15T00:08:00.034Z,7.63
2019-03-15T00:13:07.566Z,10.63
2019-03-15T00:18:15.121Z,16.80
2019-03-15T00:23:23.010Z,11.63
2019-03-15T00:28:30.503Z,10.57
2019-03-15T00:33:36.762Z,6.83
2019-03-15T00:38:43.552Z,11.77
2019-03-15T00:43:49.868Z,10.23
2019-03-15T00:48:57.653Z,10.57
2019-03-15T00:54:03.646Z,10.80
2019-03-15T00:59:09.642Z,6.37
2019-03-15T01:04:17.271Z,9.43
2019-03-15T01:09:24.032Z,9.00
2019-03-15T01:14:29.976Z,6.00
2019-03-15T01:19:37.650Z,9.93
2019-03-15T01:24:43.611Z,6.67
2019-03-15T01:29:51.045Z,8.30
2019-03-15T01:34:58.563Z,5.53
2019-03-15T01:40:05.765Z,6.80
2019-03-15T01:45:11.757Z,9.27
2019-03-15T01:50:19.304Z,9.60
2019-03-15T01:55:26.356Z,7.23
2019-03-15T02:00:33.813Z,8.30
2019-03-15T02:05:40.803Z,6.43
2019-03-15T02:10:48.565Z,9.50
2019-03-15T02:15:54.442Z,7.07
2019-03-15T02:21:00.808Z,6.43
2019-03-15T02:26:06.968Z,8.83
2019-03-15T02:31:13.726Z,6.57
2019-03-15T02:36:20.289Z,7.47
2019-03-15T02:41:26.860Z,5.03
2019-03-15T02:46:33.881Z,5.07
2019-03-15T02:51:41.677Z,6.63
2019-03-15T02:56:47.836Z,4.87
2019-03-15T03:01:54.283Z,4.80
2019-03-15T03:07:01.031Z,5.70
2019-03-15T03:12:07.129Z,6.20
2019-03-15T03:17:14.031Z,4.43
2019-03-15T03:22:21.629Z,4.00
2019-03-15T03:27:29.367Z,6.27
2019-03-15T03:32:36.551Z,5.90
2019-03-15T03:37:45.164Z,4.03
2019-03-15T03:42:53.263Z,12.30
2019-03-15T03:48:00.750Z,4.20
2019-03-15T03:53:08.439Z,6.43
2019-03-15T03:58:14.425Z,7.10
2019-03-15T04:03:21.517Z,7.17
2019-03-15T04:08:29.014Z,5.87
2019-03-15T04:13:34.966Z,4.50
2019-03-15T04:18:41.347Z,5.43
2019-03-15T04:23:47.684Z,6.27
2019-03-15T04:28:57.076Z,5.37
2019-03-15T04:34:03.775Z,7.53
2019-03-15T04:39:13.845Z,7.03
2019-03-15T04:44:20.051Z,8.30
2019-03-15T04:49:27.179Z,6.27
2019-03-15T04:54:34.068Z,7.17
2019-03-15T04:59:41.703Z,7.23
2019-03-15T05:04:49.276Z,4.87
2019-03-15T05:09:56.412Z,4.00
2019-03-15T05:15:03.697Z,5.07
2019-03-15T05:20:09.995Z,5.77
2019-03-15T05:25:16.705Z,6.87
2019-03-15T05:30:23.800Z,7.20
2019-03-15T05:35:31.085Z,6.33
2019-03-15T05:40:37.879Z,8.33
2019-03-15T05:45:44.117Z,6.17
2019-03-15T05:50:51.729Z,4.47
2019-03-15T05:55:59.080Z,7.30
2019-03-15T06:01:06.353Z,8.07
2019-03-15T06:06:13.032Z,5.57
2019-03-15T06:11:20.593Z,5.17
2019-03-15T06:16:27.024Z,5.73
2019-03-15T06:21:33.953Z,10.43
2019-03-15T06:26:41.711Z,9.70
2019-03-15T06:31:47.612Z,9.10
2019-03-15T06:36:53.780Z,9.13
2019-03-15T06:42:01.211Z,4.63
2019-03-15T06:47:09.144Z,6.60
2019-03-15T06:52:15.200Z,9.00
2019-03-15T06:57:22.954Z,6.70
2019-03-15T07:02:30.289Z,8.23
2019-03-15T07:07:36.311Z,11.53
2019-03-15T07:12:43.808Z,6.73
2019-03-15T07:17:49.782Z,8.63
2019-03-15T07:22:57.294Z,6.30
2019-03-15T07:28:03.362Z,9.03
2019-03-15T07:33:11.185Z,8.70
2019-03-15T07:38:18.893Z,12.53
2019-03-15T07:43:26.227Z,9.60
2019-03-15T07:48:33.506Z,9.43
2019-03-15T07:53:41.206Z,13.23
2019-03-15T07:58:48.541Z,18.50
2019-03-15T08:03:54.547Z,12.67
2019-03-15T08:09:00.441Z,5.50
2019-03-15T08:14:09.263Z,5.40
2019-03-15T08:19:16.814Z,5.27
2019-03-15T08:24:23.788Z,5.67
2019-03-15T08:29:31.418Z,9.27
2019-03-15T08:34:39.083Z,9.00
2019-03-15T08:39:45.200Z,8.10
2019-03-15T08:44:52.164Z,9.80
2019-03-15T08:49:59.738Z,4.80
2019-03-15T08:55:07.540Z,6.63
2019-03-15T09:00:13.913Z,20.57
2019-03-15T09:05:21.631Z,11.80
2019-03-15T09:10:27.735Z,6.73
2019-03-15T09:15:33.973Z,6.23
2019-03-15T09:20:41.681Z,9.13
2019-03-15T09:25:49.216Z,7.73
2019-03-15T09:30:56.707Z,6.67
2019-03-15T09:36:02.801Z,9.00
2019-03-15T09:41:08.871Z,6.17
2019-03-15T09:46:15.342Z,11.13
2019-03-15T09:51:22.702Z,8.83
2019-03-15T09:56:30.155Z,4.67
2019-03-15T10:01:37.710Z,5.47
2019-03-15T10:06:43.846Z,6.40
2019-03-15T10:11:51.427Z,7.87
2019-03-15T10:16:59.155Z,7.57
2019-03-15T10:22:06.974Z,7.53
2019-03-15T10:27:14.511Z,8.50
2019-03-15T10:32:21.831Z,10.03
2019-03-15T10:37:27.757Z,12.07
2019-03-15T10:42:35.090Z,7.63
2019-03-15T10:47:42.832Z,9.47
2019-03-15T10:52:53.517Z,7.70
2019-03-15T10:57:58.552Z,6.50
2019-03-15T11:03:04.572Z,6.60
2019-03-15T11:08:10.544Z,8.03
2019-03-15T11:13:16.457Z,12.47
2019-03-15T11:18:23.597Z,9.07
2019-03-15T11:23:31.653Z,7.13
2019-03-15T11:28:39.180Z,17.73
2019-03-15T11:33:47.464Z,14.60
2019-03-15T11:38:53.643Z,14.27
2019-03-15T11:44:00.905Z,11.23
2019-03-15T11:49:08.485Z,11.30
2019-03-15T11:54:14.807Z,12.97
2019-03-15T11:59:22.736Z,11.00
2019-03-15T12:04:30.335Z,10.87
2019-03-15T12:09:40.778Z,11.90
2019-03-15T12:14:47.656Z,10.10
2019-03-15T12:19:53.844Z,10.97
2019-03-15T12:24:59.877Z,9.73
2019-03-15T12:30:07.066Z,16.30
2019-03-15T12:35:14.287Z,13.40
2019-03-15T12:40:21.773Z,9.47
2019-03-15T12:45:29.755Z,10.87
2019-03-15T12:50:37.345Z,9.73
2019-03-15T12:55:45.449Z,10.60
2019-03-15T13:00:52.879Z,9.47
2019-03-15T13:06:00.689Z,13.40
2019-03-15T13:11:08.951Z,14.57
2019-03-15T13:16:15.433Z,9.87
2019-03-15T13:21:23.204Z,15.23
2019-03-15T13:26:31.157Z,21.57
2019-03-15T13:31:39.034Z,17.80
2019-03-15T13:36:45.358Z,13.93
2019-03-15T13:41:53.151Z,12.07
2019-03-15T13:47:00.695Z,12.50
2019-03-15T13:52:07.165Z,11.57
2019-03-15T13:57:21.069Z,12.93
2019-03-15T14:02:22.504Z,13.13
2019-03-15T14:07:29.979Z,16.00
2019-03-15T14:12:36.336Z,11.07
2019-03-15T14:17:42.232Z,23.87
2019-03-15T14:22:49.872Z,9.27
2019-03-15T14:27:56.083Z,10.27
2019-03-15T14:33:02.511Z,8.40
2019-03-15T14:38:10.368Z,10.83
2019-03-15T14:43:16.390Z,9.57
2019-03-15T14:48:23.670Z,8.97
2019-03-15T14:53:31.017Z,8.00
2019-03-15T14:58:38.696Z,9.53
2019-03-15T15:03:44.708Z,9.90
2019-03-15T15:08:52.112Z,6.47
2019-03-15T15:13:59.998Z,7.57
2019-03-15T15:19:07.065Z,8.43
2019-03-15T15:24:13.807Z,8.37
2019-03-15T15:29:22.173Z,7.83
2019-03-15T15:34:29.906Z,4.43
2019-03-15T15:39:36.660Z,7.23
2019-03-15T15:44:43.784Z,8.30
2019-03-15T15:49:50.634Z,11.97
2019-03-15T15:54:58.179Z,5.53
2019-03-15T16:00:04.799Z,12.37
2019-03-15T16:05:11.638Z,7.73
2019-03-15T16:10:19.148Z,6.87
2019-03-15T16:15:25.154Z,12.07
2019-03-15T16:20:32.020Z,7.23
2019-03-15T16:25:40.120Z,7.63
2019-03-15T16:30:47.629Z,12.97
2019-03-15T16:35:54.793Z,6.80
2019-03-15T16:41:01.562Z,31.40
2019-03-15T16:46:09.268Z,13.10
2019-03-15T16:51:19.710Z,26.93
2019-03-15T16:56:23.634Z,16.73
2019-03-15T17:01:30.542Z,15.60
2019-03-15T17:06:38.121Z,14.43
2019-03-15T17:11:44.037Z,13.43
2019-03-15T17:16:51.255Z,14.17
2019-03-15T17:21:58.976Z,20.63
2019-03-15T17:27:05.013Z,13.53
2019-03-15T17:32:11.068Z,17.03
2019-03-15T17:37:18.957Z,16.20
2019-03-15T17:42:26.317Z,15.00
2019-03-15T17:47:33.450Z,15.80
2019-03-15T17:52:40.497Z,16.10
2019-03-15T17:57:48.089Z,18.13
2019-03-15T18:02:55.044Z,20.97
2019-03-15T18:08:02.741Z,20.43
2019-03-15T18:13:10.349Z,17.13
2019-03-15T18:18:16.676Z,20.37
2019-03-15T18:23:23.828Z,16.87
2019-03-15T18:28:30.428Z,23.20
2019-03-15T18:33:38.157Z,20.70
2019-03-15T18:38:44.421Z,18.73
2019-03-15T18:43:50.380Z,27.40
2019-03-15T18:48:57.724Z,24.17
2019-03-15T18:54:16.748Z,25.83
2019-03-15T18:59:12.814Z,26.23
2019-03-15T19:04:20.666Z,22.50
2019-03-15T19:09:28.254Z,26.27
2019-03-15T19:14:35.686Z,20.35
2019-03-15T19:19:41.561Z,23.20
2019-03-15T19:24:47.714Z,22.20
2019-03-15T19:29:54.559Z,22.07
2019-03-15T19:35:01.482Z,20.53
2019-03-15T19:40:10.552Z,24.63
2019-03-15T19:45:17.511Z,23.97
2019-03-15T19:50:23.586Z,18.60
2019-03-15T19:55:31.160Z,21.20
2019-03-15T20:00:37.494Z,25.20
2019-03-15T20:05:43.634Z,20.97
2019-03-15T20:10:51.527Z,24.33
2019-03-15T20:15:59.056Z,25.20
2019-03-15T20:21:05.642Z,21.03
2019-03-15T20:26:11.811Z,29.33
2019-03-15T20:31:19.439Z,22.20
2019-03-15T20:36:27.717Z,20.47
2019-03-15T20:41:35.197Z,23.77
2019-03-15T20:46:42.731Z,25.33
2019-03-15T20:51:48.881Z,24.97
2019-03-15T20:56:55.193Z,28.40
2019-03-15T21:02:01.361Z,27.20
2019-03-15T21:07:09.057Z,20.00
2019-03-15T21:12:14.997Z,25.37
2019-03-15T21:17:22.258Z,17.47
2019-03-15T21:22:29.966Z,29.03
2019-03-15T21:27:52.498Z,23.83
2019-03-15T21:32:46.493Z,18.03
2019-03-15T21:37:53.872Z,20.90
2019-03-15T21:43:00.579Z,17.77
2019-03-15T21:48:08.263Z,17.07
2019-03-15T21:53:14.245Z,19.83
2019-03-15T21:58:20.546Z,23.37
2019-03-15T22:03:27.468Z,16.27
2019-03-15T22:08:33.886Z,17.80
2019-03-15T22:13:41.155Z,15.40
2019-03-15T22:18:48.961Z,16.50
2019-03-15T22:23:54.900Z,17.33
2019-03-15T22:29:01.303Z,19.83
2019-03-15T22:34:08.841Z,21.90
2019-03-15T22:39:14.963Z,21.67
2019-03-15T22:44:22.739Z,19.87
2019-03-15T22:49:28.762Z,22.13
2019-03-15T22:54:36.203Z,18.57
2019-03-15T22:59:42.986Z,20.43
2019-03-15T23:04:49.203Z,18.60
2019-03-15T23:09:56.374Z,16.57
2019-03-15T23:15:03.983Z,17.87
2019-03-15T23:20:10.699Z,23.80
2019-03-15T23:25:18.295Z,15.77
2019-03-15T23:30:24.337Z,20.37
2019-03-15T23:35:30.279Z,21.27
2019-03-15T23:40:36.404Z,18.23
2019-03-15T23:45:43.119Z,20.47
2019-03-15T23:50:50.569Z,17.67
2019-03-15T23:55:58.118Z,16.60
